Wiscotta, Iowa
Current Conditions -  °F | °C
As of 3:55 PM on Thursday 23 Oct 2014 (Local Time) from KPRO Reporting Station
Clear Clear  
Wind Chill: 71°   Ceiling: Unl
Heat Index: 71°   Visibility: 10mi
Dew Point: 45°   Wind: 3mph
Humidity: 40%   Direction: 340°NNW
Pressure: 30.01"   Gusts: NA
Location:  41.5743°N, 94.1829°W
Report Text: KPRO 232055Z AUTO 34003KT 10SM CLR 22/07 A3001 RMK AO2 T02150074
Loading
Personal Weather Stations






























Interactive Weather Map
Tropical Storm Tracking
New forecast layout! Learn more

10-Day Weather Forecast

Advertisements
Track Severe Weather on mobile